createdAt,value
2019-05-06T00:00:54.888Z,1001.84
2019-05-06T00:01:44.110Z,1001.82
2019-05-06T00:02:41.122Z,1001.82
2019-05-06T00:03:41.106Z,1001.79
2019-05-06T00:04:41.107Z,1001.78
2019-05-06T00:05:41.095Z,1001.75
2019-05-06T00:06:41.134Z,1001.74
2019-05-06T00:07:41.079Z,1001.72
2019-05-06T00:08:41.049Z,1001.74
2019-05-06T00:09:41.041Z,1001.74
2019-05-06T00:10:41.033Z,1001.79
2019-05-06T00:11:41.040Z,1001.74
2019-05-06T00:12:41.050Z,1001.73
2019-05-06T00:13:41.012Z,1001.76
2019-05-06T00:14:41.007Z,1001.74
2019-05-06T00:15:40.971Z,1001.74
2019-05-06T00:16:40.972Z,1001.76
2019-05-06T00:17:40.954Z,1001.76
2019-05-06T00:18:40.990Z,1001.80
2019-05-06T00:19:40.944Z,1001.82
2019-05-06T00:20:40.918Z,1001.80
2019-05-06T00:21:40.922Z,1001.79
2019-05-06T00:22:40.993Z,1001.80
2019-05-06T00:23:40.900Z,1001.77
2019-05-06T00:24:41.005Z,1001.80
2019-05-06T00:25:40.938Z,1001.78
2019-05-06T00:26:40.866Z,1001.77
2019-05-06T00:27:40.851Z,1001.77
2019-05-06T00:28:40.845Z,1001.77
2019-05-06T00:29:40.864Z,1001.78
2019-05-06T00:30:40.914Z,1001.75
2019-05-06T00:31:40.809Z,1001.78
2019-05-06T00:32:40.794Z,1001.82
2019-05-06T00:33:40.787Z,1001.82
2019-05-06T00:34:40.774Z,1001.80
2019-05-06T00:35:40.766Z,1001.77
2019-05-06T00:36:40.797Z,1001.76
2019-05-06T00:37:40.735Z,1001.81
2019-05-06T00:38:40.725Z,1001.79
2019-05-06T00:39:40.720Z,1001.77
2019-05-06T00:40:40.715Z,1001.78
2019-05-06T00:41:40.692Z,1001.86
2019-05-06T00:42:40.760Z,1001.77
2019-05-06T00:43:40.680Z,1001.76
2019-05-06T00:44:40.675Z,1001.83
2019-05-06T00:45:40.655Z,1001.77
2019-05-06T00:46:40.644Z,1001.78
2019-05-06T00:47:40.660Z,1001.78
2019-05-06T00:48:40.676Z,1001.76
2019-05-06T00:49:40.604Z,1001.75
2019-05-06T00:50:40.617Z,1001.76
2019-05-06T00:51:40.623Z,1001.74
2019-05-06T00:52:40.580Z,1001.74
2019-05-06T00:53:40.572Z,1001.74
2019-05-06T00:54:40.605Z,1001.71
2019-05-06T00:55:40.541Z,1001.73
2019-05-06T00:56:40.550Z,1001.71
2019-05-06T00:57:40.516Z,1001.74
2019-05-06T00:58:40.504Z,1001.73
2019-05-06T00:59:40.502Z,1001.81
2019-05-06T01:00:40.759Z,1001.77
2019-05-06T01:01:40.483Z,1001.80
2019-05-06T01:02:40.460Z,1001.75
2019-05-06T01:03:40.454Z,1001.76
2019-05-06T01:04:40.439Z,1001.73
2019-05-06T01:05:40.475Z,1001.72
2019-05-06T01:06:40.477Z,1001.73
2019-05-06T01:07:40.408Z,1001.69
2019-05-06T01:08:40.415Z,1001.70
2019-05-06T01:09:40.396Z,1001.73
2019-05-06T01:10:40.383Z,1001.72
2019-05-06T01:11:40.382Z,1001.71
2019-05-06T01:12:40.394Z,1001.73
2019-05-06T01:13:40.343Z,1001.77
2019-05-06T01:14:40.335Z,1001.74
2019-05-06T01:15:40.325Z,1001.72
2019-05-06T01:16:40.306Z,1001.72
2019-05-06T01:17:40.311Z,1001.73
2019-05-06T01:18:40.351Z,1001.71
2019-05-06T01:19:40.280Z,1001.72
2019-05-06T01:20:40.266Z,1001.72
2019-05-06T01:21:40.259Z,1001.73
2019-05-06T01:22:40.245Z,1001.73
2019-05-06T01:23:40.238Z,1001.73
2019-05-06T01:24:40.254Z,1001.73
2019-05-06T01:25:40.267Z,1001.71
2019-05-06T01:26:40.242Z,1001.75
2019-05-06T01:27:40.190Z,1001.71
2019-05-06T01:28:40.180Z,1001.73
2019-05-06T01:29:40.173Z,1001.72
2019-05-06T01:30:40.212Z,1001.72
2019-05-06T01:31:43.210Z,1001.71
2019-05-06T01:32:41.158Z,1001.72
2019-05-06T01:33:40.139Z,1001.69
2019-05-06T01:34:40.122Z,1001.66
2019-05-06T01:35:40.102Z,1001.65
2019-05-06T01:36:40.158Z,1001.70
2019-05-06T01:37:40.082Z,1001.67
2019-05-06T01:38:40.069Z,1001.68
2019-05-06T01:39:40.064Z,1001.67
2019-05-06T01:40:40.113Z,1001.68
2019-05-06T01:41:40.052Z,1001.65
2019-05-06T01:42:40.240Z,1001.74
2019-05-06T01:43:40.017Z,1001.72
2019-05-06T01:44:40.067Z,1001.70
2019-05-06T01:45:39.999Z,1001.76
2019-05-06T01:46:39.991Z,1001.78
2019-05-06T01:47:39.982Z,1001.78
2019-05-06T01:48:40.015Z,1001.67
2019-05-06T01:49:39.983Z,1001.69
2019-05-06T01:50:39.973Z,1001.70
2019-05-06T01:51:39.977Z,1001.72
2019-05-06T01:52:39.937Z,1001.71
2019-05-06T01:53:39.927Z,1001.76
2019-05-06T01:54:39.939Z,1001.78
2019-05-06T01:55:39.911Z,1001.73
2019-05-06T01:56:39.884Z,1001.71
2019-05-06T01:57:39.870Z,1001.72
2019-05-06T01:58:39.857Z,1001.75
2019-05-06T01:59:39.849Z,1001.78
2019-05-06T02:00:39.900Z,1001.77
2019-05-06T02:01:53.495Z,1001.76
2019-05-06T02:02:40.818Z,1001.75
2019-05-06T02:03:39.831Z,1001.78
2019-05-06T02:04:39.809Z,1001.74
2019-05-06T02:05:39.799Z,1001.74
2019-05-06T02:06:39.826Z,1001.76
2019-05-06T02:07:39.770Z,1001.73
2019-05-06T02:08:39.757Z,1001.72
2019-05-06T02:09:39.741Z,1001.77
2019-05-06T02:10:39.742Z,1001.76
2019-05-06T02:11:39.719Z,1001.75
2019-05-06T02:12:39.771Z,1001.78
2019-05-06T02:13:39.709Z,1001.82
2019-05-06T02:14:39.691Z,1001.82
2019-05-06T02:15:39.681Z,1001.81
2019-05-06T02:16:39.669Z,1001.85
2019-05-06T02:17:39.654Z,1001.77
2019-05-06T02:18:39.678Z,1001.80
2019-05-06T02:19:39.641Z,1001.80
2019-05-06T02:20:39.617Z,1001.82
2019-05-06T02:21:39.625Z,1001.77
2019-05-06T02:22:39.625Z,1001.82
2019-05-06T02:23:39.591Z,1001.81
2019-05-06T02:24:39.634Z,1001.76
2019-05-06T02:25:39.571Z,1001.76
2019-05-06T02:26:39.565Z,1001.77
2019-05-06T02:27:39.550Z,1001.75
2019-05-06T02:28:39.552Z,1001.77
2019-05-06T02:29:39.521Z,1001.79
2019-05-06T02:30:39.560Z,1001.79
2019-05-06T02:31:39.518Z,1001.77
2019-05-06T02:32:39.507Z,1001.83
2019-05-06T02:33:39.484Z,1001.77
2019-05-06T02:34:39.480Z,1001.79
2019-05-06T02:35:39.460Z,1001.83
2019-05-06T02:36:39.505Z,1001.82
2019-05-06T02:37:39.447Z,1001.81
2019-05-06T02:38:50.449Z,1001.85
2019-05-06T02:39:43.599Z,1001.85
2019-05-06T02:40:39.417Z,1001.83
2019-05-06T02:41:39.400Z,1001.80
2019-05-06T02:42:39.420Z,1001.84
2019-05-06T02:43:39.376Z,1001.85
2019-05-06T02:44:39.381Z,1001.84
2019-05-06T02:45:39.381Z,1001.84
2019-05-06T02:46:39.353Z,1001.75
2019-05-06T02:47:39.336Z,1001.78
2019-05-06T02:48:39.374Z,1001.79
2019-05-06T02:49:39.310Z,1001.82
2019-05-06T02:50:39.356Z,1001.81
2019-05-06T02:51:39.286Z,1001.83
2019-05-06T02:52:39.289Z,1001.87
2019-05-06T02:53:39.271Z,1001.83
2019-05-06T02:54:39.309Z,1001.87
2019-05-06T02:55:39.246Z,1001.82
2019-05-06T02:56:39.252Z,1001.82
2019-05-06T02:57:39.230Z,1001.77
2019-05-06T02:58:39.229Z,1001.77
2019-05-06T02:59:39.216Z,1001.73
2019-05-06T03:00:39.222Z,1001.84
2019-05-06T03:01:39.213Z,1001.76
2019-05-06T03:02:43.803Z,1001.70
2019-05-06T03:03:43.439Z,1001.76
2019-05-06T03:04:39.177Z,1001.80
2019-05-06T03:05:39.215Z,1001.83
2019-05-06T03:06:39.289Z,1001.79
2019-05-06T03:07:39.124Z,1001.81
2019-05-06T03:08:39.109Z,1001.73
2019-05-06T03:09:39.113Z,1001.76
2019-05-06T03:10:39.094Z,1001.78
2019-05-06T03:11:39.088Z,1001.74
2019-05-06T03:12:39.125Z,1001.78
2019-05-06T03:13:39.069Z,1001.74
2019-05-06T03:14:39.044Z,1001.76
2019-05-06T03:15:39.049Z,1001.81
2019-05-06T03:16:39.043Z,1001.75
2019-05-06T03:17:39.014Z,1001.77
2019-05-06T03:18:39.045Z,1001.74
2019-05-06T03:19:39.005Z,1001.72
2019-05-06T03:20:39.002Z,1001.77
2019-05-06T03:21:38.993Z,1001.71
2019-05-06T03:22:38.966Z,1001.71
2019-05-06T03:23:38.944Z,1001.74
2019-05-06T03:24:39.001Z,1001.70
2019-05-06T03:25:38.947Z,1001.70
2019-05-06T03:26:38.930Z,1001.72
2019-05-06T03:27:38.907Z,1001.69
2019-05-06T03:28:38.907Z,1001.68
2019-05-06T03:29:38.905Z,1001.66
2019-05-06T03:30:38.939Z,1001.70
2019-05-06T03:31:39.163Z,1001.70
2019-05-06T03:33:14.156Z,1001.72
2019-05-06T03:33:59.816Z,1001.73
2019-05-06T03:35:00.709Z,1001.72
2019-05-06T03:35:52.253Z,1001.73
2019-05-06T03:36:42.236Z,1001.71
2019-05-06T03:37:39.836Z,1001.71
2019-05-06T03:38:38.787Z,1001.75
2019-05-06T03:39:38.787Z,1001.73
2019-05-06T03:40:42.096Z,1001.70
2019-05-06T03:41:39.806Z,1001.65
2019-05-06T03:42:38.755Z,1001.67
2019-05-06T03:43:38.754Z,1001.67
2019-05-06T03:44:38.748Z,1001.63
2019-05-06T03:45:38.809Z,1001.68
2019-05-06T03:46:38.753Z,1001.65
2019-05-06T03:47:38.737Z,1001.70
2019-05-06T03:48:38.681Z,1001.67
2019-05-06T03:49:38.672Z,1001.70
2019-05-06T03:50:38.660Z,1001.71
2019-05-06T03:51:38.683Z,1001.74
2019-05-06T03:52:38.645Z,1001.68
2019-05-06T03:53:38.694Z,1001.73
2019-05-06T03:54:38.631Z,1001.76
2019-05-06T03:55:38.628Z,1001.72
2019-05-06T03:56:38.595Z,1001.76
2019-05-06T03:57:38.588Z,1001.74
2019-05-06T03:58:38.585Z,1001.74
2019-05-06T03:59:38.664Z,1001.74
2019-05-06T04:00:38.591Z,1001.77
2019-05-06T04:01:38.583Z,1001.74
2019-05-06T04:02:39.901Z,1001.77
2019-05-06T04:03:46.846Z,1001.70
2019-05-06T04:04:39.576Z,1001.74
2019-05-06T04:05:38.528Z,1001.76
2019-05-06T04:06:38.502Z,1001.72
2019-05-06T04:07:38.486Z,1001.72
2019-05-06T04:08:38.595Z,1001.75
2019-05-06T04:09:38.459Z,1001.75
2019-05-06T04:10:38.627Z,1001.74
2019-05-06T04:11:38.458Z,1001.77
2019-05-06T04:12:38.435Z,1001.74
2019-05-06T04:13:38.420Z,1001.74
2019-05-06T04:14:38.421Z,1001.77
2019-05-06T04:15:38.392Z,1001.77
2019-05-06T04:16:38.601Z,1001.75
2019-05-06T04:17:38.367Z,1001.76
2019-05-06T04:18:38.358Z,1001.74
2019-05-06T04:19:38.429Z,1001.74
2019-05-06T04:20:38.336Z,1001.73
2019-05-06T04:21:38.334Z,1001.71
2019-05-06T04:22:38.357Z,1001.70
2019-05-06T04:23:38.302Z,1001.73
2019-05-06T04:24:38.295Z,1001.68
2019-05-06T04:25:38.297Z,1001.71
2019-05-06T04:26:38.283Z,1001.75
2019-05-06T04:27:38.267Z,1001.79
2019-05-06T04:28:38.376Z,1001.80
2019-05-06T04:29:38.241Z,1001.79
2019-05-06T04:30:38.255Z,1001.80
2019-05-06T04:31:38.298Z,1001.82
2019-05-06T04:32:38.338Z,1001.81
2019-05-06T04:33:38.213Z,1001.76
2019-05-06T04:34:38.243Z,1001.76
2019-05-06T04:35:38.228Z,1001.82
2019-05-06T04:36:38.165Z,1001.80
2019-05-06T04:37:38.155Z,1001.85
2019-05-06T04:38:38.159Z,1001.76
2019-05-06T04:39:38.131Z,1001.81
2019-05-06T04:40:38.163Z,1001.80
2019-05-06T04:41:38.128Z,1001.77
2019-05-06T04:42:38.097Z,1001.78
2019-05-06T04:43:38.152Z,1001.84
2019-05-06T04:44:38.116Z,1001.80
2019-05-06T04:45:38.108Z,1001.82
2019-05-06T04:46:38.124Z,1001.81
2019-05-06T04:47:38.051Z,1001.81
2019-05-06T04:48:38.061Z,1001.86
2019-05-06T04:49:38.035Z,1001.83
2019-05-06T04:50:38.023Z,1001.88
2019-05-06T04:51:38.029Z,1001.88
2019-05-06T04:52:38.044Z,1001.83
2019-05-06T04:53:38.035Z,1001.78
2019-05-06T04:54:38.045Z,1001.77
2019-05-06T04:55:37.969Z,1001.73
2019-05-06T04:56:37.955Z,1001.66
2019-05-06T04:57:37.946Z,1001.70
2019-05-06T04:58:37.993Z,1001.71
2019-05-06T04:59:37.919Z,1001.77
2019-05-06T05:00:38.015Z,1001.76
2019-05-06T05:01:37.901Z,1001.84
2019-05-06T05:02:37.888Z,1001.89
2019-05-06T05:03:37.904Z,1001.86
2019-05-06T05:04:37.901Z,1001.88
2019-05-06T05:05:37.850Z,1001.85
2019-05-06T05:06:37.846Z,1001.87
2019-05-06T05:07:37.848Z,1001.86
2019-05-06T05:08:37.840Z,1001.90
2019-05-06T05:09:37.813Z,1001.92
2019-05-06T05:10:37.872Z,1001.94
2019-05-06T05:11:37.791Z,1001.90
2019-05-06T05:12:37.782Z,1001.89
2019-05-06T05:13:37.767Z,1001.93
2019-05-06T05:14:37.784Z,1001.95
2019-05-06T05:15:37.745Z,1001.90
2019-05-06T05:16:37.785Z,1001.87
2019-05-06T05:17:37.722Z,1001.85
2019-05-06T05:18:37.713Z,1001.85
2019-05-06T05:19:37.704Z,1001.86
2019-05-06T05:20:44.113Z,1001.86
2019-05-06T05:21:38.789Z,1001.87
2019-05-06T05:22:37.671Z,1001.89
2019-05-06T05:23:37.657Z,1001.88
2019-05-06T05:24:37.645Z,1001.84
2019-05-06T05:25:37.639Z,1001.90
2019-05-06T05:26:37.628Z,1001.92
2019-05-06T05:27:37.666Z,1001.92
2019-05-06T05:28:37.611Z,1001.97
2019-05-06T05:29:37.609Z,1002.01
2019-05-06T05:30:37.611Z,1002.06
2019-05-06T05:31:37.572Z,1002.09
2019-05-06T05:32:37.564Z,1002.15
2019-05-06T05:33:37.588Z,1002.20
2019-05-06T05:34:40.606Z,1002.15
2019-05-06T05:35:37.530Z,1002.17
2019-05-06T05:36:37.520Z,1002.21
2019-05-06T05:37:37.509Z,1002.17
2019-05-06T05:38:37.492Z,1002.09
2019-05-06T05:39:37.534Z,1002.06
2019-05-06T05:40:37.512Z,1002.11
2019-05-06T05:41:37.462Z,1002.15
2019-05-06T05:42:37.456Z,1002.17
2019-05-06T05:43:39.517Z,1002.12
2019-05-06T05:44:37.437Z,1002.16
2019-05-06T05:45:37.458Z,1002.17
2019-05-06T05:46:37.411Z,1002.19
2019-05-06T05:47:37.429Z,1002.20
2019-05-06T05:48:37.387Z,1002.20
2019-05-06T05:49:37.395Z,1002.17
2019-05-06T05:50:37.377Z,1002.15
2019-05-06T05:51:37.387Z,1002.12
2019-05-06T05:52:37.341Z,1002.10
2019-05-06T05:53:37.379Z,1002.13
2019-05-06T05:54:37.319Z,1002.15
2019-05-06T05:55:58.316Z,1002.11
2019-05-06T05:56:37.304Z,1002.15
2019-05-06T05:57:37.498Z,1002.14
2019-05-06T05:58:37.293Z,1002.12
2019-05-06T05:59:37.271Z,1002.16
2019-05-06T06:00:37.255Z,1002.15
2019-05-06T06:01:37.243Z,1002.15
2019-05-06T06:02:37.243Z,1002.15
2019-05-06T06:03:37.280Z,1002.10
2019-05-06T06:04:50.730Z,1002.15
2019-05-06T06:05:38.203Z,1002.05
2019-05-06T06:06:37.189Z,1002.09
2019-05-06T06:07:37.182Z,1002.07
2019-05-06T06:08:37.172Z,1002.05
2019-05-06T06:09:37.196Z,1002.02
2019-05-06T06:10:37.156Z,1002.07
2019-05-06T06:11:37.138Z,1002.07
2019-05-06T06:12:37.123Z,1002.00
2019-05-06T06:13:37.116Z,1002.06
2019-05-06T06:14:37.105Z,1002.08
2019-05-06T06:15:37.131Z,1002.05
2019-05-06T06:16:37.093Z,1002.13
2019-05-06T06:17:37.072Z,1002.10
2019-05-06T06:18:37.054Z,1002.09
2019-05-06T06:19:37.053Z,1002.16
2019-05-06T06:20:37.040Z,1002.15
2019-05-06T06:21:37.076Z,1002.19
2019-05-06T06:22:37.050Z,1002.11
2019-05-06T06:23:37.004Z,1002.07
2019-05-06T06:24:37.006Z,1002.09
2019-05-06T06:25:37.006Z,1002.03
2019-05-06T06:26:36.969Z,1002.05
2019-05-06T06:27:37.011Z,1002.06
2019-05-06T06:28:36.978Z,1002.06
2019-05-06T06:29:36.969Z,1002.10
2019-05-06T06:30:36.931Z,1002.09
2019-05-06T06:31:36.931Z,1002.02
2019-05-06T06:32:36.962Z,1001.96
2019-05-06T06:33:36.971Z,1001.94
2019-05-06T06:34:36.899Z,1001.92
2019-05-06T06:35:36.903Z,1001.90
2019-05-06T06:36:36.888Z,1001.81
2019-05-06T06:37:36.852Z,1001.77
2019-05-06T06:38:36.844Z,1001.78
2019-05-06T06:39:36.880Z,1001.80
2019-05-06T06:40:36.821Z,1001.83
2019-05-06T06:41:36.830Z,1001.97
2019-05-06T06:42:36.798Z,1002.06
2019-05-06T06:43:36.790Z,1002.03
2019-05-06T06:44:36.781Z,1002.05
2019-05-06T06:45:36.814Z,1002.06
2019-05-06T06:46:36.755Z,1002.08
2019-05-06T06:47:36.774Z,1002.05
2019-05-06T06:48:36.737Z,1002.07
2019-05-06T06:49:36.731Z,1002.04
2019-05-06T06:50:36.710Z,1002.06
2019-05-06T06:51:36.764Z,1002.06
2019-05-06T06:52:36.694Z,1001.98
2019-05-06T06:53:36.703Z,1001.99
2019-05-06T06:54:36.666Z,1001.99
2019-05-06T06:55:36.662Z,1001.96
2019-05-06T06:56:36.649Z,1001.94
2019-05-06T06:57:36.689Z,1001.94
2019-05-06T06:58:36.624Z,1001.98
2019-05-06T06:59:36.638Z,1001.96
2019-05-06T07:00:36.605Z,1002.01
2019-05-06T07:01:36.594Z,1001.97
2019-05-06T07:02:36.583Z,1001.95
2019-05-06T07:03:36.619Z,1002.00
2019-05-06T07:04:36.567Z,1001.94
2019-05-06T07:05:36.566Z,1001.98
2019-05-06T07:06:36.570Z,1001.93
2019-05-06T07:07:43.997Z,1001.91
2019-05-06T07:08:37.949Z,1001.93
2019-05-06T07:09:36.506Z,1001.95
2019-05-06T07:10:36.492Z,1001.93
2019-05-06T07:11:36.521Z,1001.96
2019-05-06T07:12:36.476Z,1001.98
2019-05-06T07:13:36.462Z,1001.97
2019-05-06T07:14:36.506Z,1001.97
2019-05-06T07:15:36.452Z,1002.01
2019-05-06T07:16:36.429Z,1002.02
2019-05-06T07:17:36.424Z,1002.07
2019-05-06T07:18:36.437Z,1001.94
2019-05-06T07:19:36.398Z,1001.99
2019-05-06T07:20:36.433Z,1001.97
2019-05-06T07:21:36.955Z,1001.94
2019-05-06T07:22:36.367Z,1001.96
2019-05-06T07:23:36.352Z,1001.98
2019-05-06T07:24:36.361Z,1001.97
2019-05-06T07:25:36.342Z,1001.90
2019-05-06T07:26:36.384Z,1001.92
2019-05-06T07:27:36.314Z,1001.89
2019-05-06T07:28:36.308Z,1001.91
2019-05-06T07:29:36.289Z,1001.92
2019-05-06T07:30:36.272Z,1001.94
2019-05-06T07:31:36.275Z,1001.93
2019-05-06T07:32:36.310Z,1001.95
2019-05-06T07:33:36.238Z,1001.94
2019-05-06T07:34:36.233Z,1001.92
2019-05-06T07:35:40.503Z,1001.97
2019-05-06T07:36:36.206Z,1001.96
2019-05-06T07:37:36.195Z,1001.97
2019-05-06T07:38:36.244Z,1001.98
2019-05-06T07:39:36.175Z,1001.94
2019-05-06T07:40:36.169Z,1001.95
2019-05-06T07:41:36.435Z,1001.94
2019-05-06T07:42:36.140Z,1001.97
2019-05-06T07:43:36.135Z,1001.97
2019-05-06T07:44:36.206Z,1001.96
2019-05-06T07:45:36.112Z,1002.02
2019-05-06T07:46:36.098Z,1001.93
2019-05-06T07:47:36.099Z,1001.95
2019-05-06T07:48:36.083Z,1002.01
2019-05-06T07:49:36.076Z,1001.98
2019-05-06T07:50:36.109Z,1001.95
2019-05-06T07:51:36.043Z,1001.94
2019-05-06T07:52:36.043Z,1002.00
2019-05-06T07:53:36.019Z,1001.96
2019-05-06T07:54:36.037Z,1002.02
2019-05-06T07:55:36.001Z,1002.07
2019-05-06T07:56:36.042Z,1002.03
2019-05-06T07:57:35.981Z,1002.05
2019-05-06T07:58:35.978Z,1002.07
2019-05-06T07:59:35.956Z,1002.05
2019-05-06T08:00:35.973Z,1002.08
2019-05-06T08:01:35.944Z,1002.06
2019-05-06T08:02:35.975Z,1002.06
2019-05-06T08:03:35.910Z,1002.08
2019-05-06T08:04:35.904Z,1002.02
2019-05-06T08:05:35.896Z,1001.99
2019-05-06T08:06:35.905Z,1002.05
2019-05-06T08:07:35.870Z,1002.08
2019-05-06T08:08:35.889Z,1002.08
2019-05-06T08:09:35.848Z,1002.05
2019-05-06T08:10:35.843Z,1002.13
2019-05-06T08:11:35.825Z,1002.12
2019-05-06T08:12:35.832Z,1002.12
2019-05-06T08:13:35.803Z,1002.12
2019-05-06T08:14:35.853Z,1002.13
2019-05-06T08:15:35.782Z,1002.09
2019-05-06T08:16:35.767Z,1002.13
2019-05-06T08:17:35.761Z,1002.08
2019-05-06T08:18:35.750Z,1002.09
2019-05-06T08:19:35.747Z,1002.04
2019-05-06T08:20:35.787Z,1002.03
2019-05-06T08:21:35.720Z,1002.14
2019-05-06T08:22:35.707Z,1002.07
2019-05-06T08:23:35.693Z,1002.07
2019-05-06T08:24:35.681Z,1002.13
2019-05-06T08:25:35.672Z,1002.16
2019-05-06T08:26:35.721Z,1002.16
2019-05-06T08:27:35.649Z,1002.14
2019-05-06T08:28:40.608Z,1002.09
2019-05-06T08:29:36.634Z,1002.09
2019-05-06T08:30:35.716Z,1002.16
2019-05-06T08:31:35.606Z,1002.16
2019-05-06T08:32:35.684Z,1002.14
2019-05-06T08:33:35.585Z,1002.24
2019-05-06T08:34:35.590Z,1002.22
2019-05-06T08:35:35.574Z,1002.16
2019-05-06T08:36:35.553Z,1002.18
2019-05-06T08:37:35.539Z,1002.17
2019-05-06T08:38:35.578Z,1002.21
2019-05-06T08:39:35.539Z,1002.13
2019-05-06T08:40:35.508Z,1002.14
2019-05-06T08:41:35.499Z,1002.18
2019-05-06T08:42:35.484Z,1002.18
2019-05-06T08:43:35.475Z,1002.13
2019-05-06T08:44:35.491Z,1002.12
2019-05-06T08:45:35.451Z,1002.15
2019-05-06T08:46:35.460Z,1002.09
2019-05-06T08:47:35.460Z,1002.07
2019-05-06T08:48:35.428Z,1002.06
2019-05-06T08:49:35.423Z,1002.06
2019-05-06T08:50:35.452Z,1002.09
2019-05-06T08:51:35.390Z,1002.04
2019-05-06T08:52:35.375Z,1002.05
2019-05-06T08:53:35.368Z,1002.00
2019-05-06T08:54:35.369Z,1001.99
2019-05-06T08:55:35.338Z,1001.97
2019-05-06T08:56:35.371Z,1001.99
2019-05-06T08:57:35.319Z,1002.00
2019-05-06T08:58:35.315Z,1001.97
2019-05-06T08:59:35.299Z,1001.96
2019-05-06T09:00:35.311Z,1001.99
2019-05-06T09:01:35.276Z,1001.98
2019-05-06T09:02:35.295Z,1001.97
2019-05-06T09:03:35.263Z,1001.98
2019-05-06T09:04:35.265Z,1001.99
2019-05-06T09:05:35.231Z,1001.97
2019-05-06T09:06:35.254Z,1002.00
2019-05-06T09:07:35.233Z,1001.98
2019-05-06T09:08:35.251Z,1001.97
2019-05-06T09:09:35.189Z,1002.05
2019-05-06T09:10:35.180Z,1002.05
2019-05-06T09:11:35.165Z,1001.96
2019-05-06T09:12:35.171Z,1001.93
2019-05-06T09:13:35.152Z,1001.93
2019-05-06T09:14:35.178Z,1001.95
2019-05-06T09:15:35.127Z,1001.95
2019-05-06T09:16:35.120Z,1001.94
2019-05-06T09:17:35.105Z,1001.96
2019-05-06T09:18:35.114Z,1001.90
2019-05-06T09:19:35.091Z,1001.94
2019-05-06T09:20:35.114Z,1001.93
2019-05-06T09:21:35.073Z,1001.92
2019-05-06T09:22:35.052Z,1001.95
2019-05-06T09:23:35.041Z,1001.92
2019-05-06T09:24:35.097Z,1001.98
2019-05-06T09:25:35.022Z,1001.99
2019-05-06T09:26:35.074Z,1001.93
2019-05-06T09:27:35.024Z,1001.97
2019-05-06T09:28:34.982Z,1001.94
2019-05-06T09:29:34.979Z,1001.92
2019-05-06T09:30:34.996Z,1001.86
2019-05-06T09:31:34.951Z,1001.92
2019-05-06T09:32:35.980Z,1001.85
2019-05-06T09:33:34.930Z,1001.82
2019-05-06T09:34:34.927Z,1001.74
2019-05-06T09:35:34.922Z,1001.80
2019-05-06T09:36:44.201Z,1001.77
2019-05-06T09:37:35.934Z,1001.76
2019-05-06T09:38:34.876Z,1001.80
2019-05-06T09:39:34.861Z,1001.79
2019-05-06T09:40:34.854Z,1001.76
2019-05-06T09:41:34.893Z,1001.75
2019-05-06T09:42:34.828Z,1001.69
2019-05-06T09:43:34.865Z,1001.69
2019-05-06T09:44:34.814Z,1001.67
2019-05-06T09:45:34.794Z,1001.71
2019-05-06T09:46:34.784Z,1001.62
2019-05-06T09:47:34.793Z,1001.66
2019-05-06T09:48:34.763Z,1001.64
2019-05-06T09:49:34.799Z,1001.59
2019-05-06T09:50:34.739Z,1001.59
2019-05-06T09:51:34.725Z,1001.56
2019-05-06T09:52:34.717Z,1001.57
2019-05-06T09:53:34.759Z,1001.57
2019-05-06T09:54:34.699Z,1001.59
2019-05-06T09:55:34.729Z,1001.62
2019-05-06T09:56:34.679Z,1001.66
2019-05-06T09:57:34.664Z,1001.65
2019-05-06T09:58:34.667Z,1001.68
2019-05-06T09:59:34.641Z,1001.69
2019-05-06T10:00:34.626Z,1001.68
2019-05-06T10:01:34.697Z,1001.66
2019-05-06T10:02:34.624Z,1001.63
2019-05-06T10:03:34.603Z,1001.60
2019-05-06T10:04:34.585Z,1001.69
2019-05-06T10:05:34.581Z,1001.65
2019-05-06T10:06:34.566Z,1001.66
2019-05-06T10:07:34.605Z,1001.66
2019-05-06T10:08:34.541Z,1001.69
2019-05-06T10:09:34.535Z,1001.72
2019-05-06T10:10:34.524Z,1001.72
2019-05-06T10:11:34.515Z,1001.74
2019-05-06T10:12:34.505Z,1001.73
2019-05-06T10:13:34.711Z,1001.71
2019-05-06T10:14:34.475Z,1001.71
2019-05-06T10:15:34.477Z,1001.79
2019-05-06T10:16:34.465Z,1001.76
2019-05-06T10:17:34.447Z,1001.78
2019-05-06T10:18:34.436Z,1001.80
2019-05-06T10:19:34.495Z,1001.77
2019-05-06T10:20:34.422Z,1001.73
2019-05-06T10:21:34.411Z,1001.76
2019-05-06T10:22:34.392Z,1001.70
2019-05-06T10:23:34.381Z,1001.72
2019-05-06T10:24:34.374Z,1001.68
2019-05-06T10:25:34.433Z,1001.71
2019-05-06T10:26:34.348Z,1001.66
2019-05-06T10:27:34.340Z,1001.64
2019-05-06T10:28:34.327Z,1001.69
2019-05-06T10:29:34.316Z,1001.66
2019-05-06T10:30:34.317Z,1001.64
2019-05-06T10:31:34.364Z,1001.64
2019-05-06T10:32:34.318Z,1001.64
2019-05-06T10:33:34.277Z,1001.63
2019-05-06T10:34:34.260Z,1001.61
2019-05-06T10:35:34.253Z,1001.67
2019-05-06T10:36:34.238Z,1001.59
2019-05-06T10:37:34.281Z,1001.59
2019-05-06T10:38:34.216Z,1001.60
2019-05-06T10:39:34.232Z,1001.60
2019-05-06T10:40:34.245Z,1001.56
2019-05-06T10:41:34.190Z,1001.54
2019-05-06T10:42:34.180Z,1001.55
2019-05-06T10:43:34.190Z,1001.55
2019-05-06T10:44:34.150Z,1001.48
2019-05-06T10:45:34.150Z,1001.55
2019-05-06T10:46:34.177Z,1001.57
2019-05-06T10:47:34.119Z,1001.55
2019-05-06T10:48:34.115Z,1001.59
2019-05-06T10:49:34.142Z,1001.55
2019-05-06T10:50:34.085Z,1001.56
2019-05-06T10:51:34.076Z,1001.48
2019-05-06T10:52:34.061Z,1001.54
2019-05-06T10:53:34.053Z,1001.53
2019-05-06T10:54:34.059Z,1001.53
2019-05-06T10:55:34.093Z,1001.55
2019-05-06T10:56:49.490Z,1001.50
2019-05-06T10:57:35.006Z,1001.52
2019-05-06T10:58:34.001Z,1001.47
2019-05-06T10:59:33.985Z,1001.46
2019-05-06T11:00:34.002Z,1001.46
2019-05-06T11:01:34.009Z,1001.52
2019-05-06T11:02:33.960Z,1001.43
2019-05-06T11:03:33.952Z,1001.49
2019-05-06T11:04:33.934Z,1001.52
2019-05-06T11:05:33.923Z,1001.41
2019-05-06T11:06:33.924Z,1001.43
2019-05-06T11:07:35.413Z,1001.44
2019-05-06T11:08:33.887Z,1001.45
2019-05-06T11:09:33.910Z,1001.42
2019-05-06T11:10:40.855Z,1001.37
2019-05-06T11:11:38.557Z,1001.43
2019-05-06T11:12:33.858Z,1001.41
2019-05-06T11:13:33.940Z,1001.46
2019-05-06T11:14:33.829Z,1001.38
2019-05-06T11:15:33.824Z,1001.38
2019-05-06T11:16:33.813Z,1001.41
2019-05-06T11:17:33.794Z,1001.44
2019-05-06T11:18:33.778Z,1001.33
2019-05-06T11:19:33.825Z,1001.38
2019-05-06T11:20:33.763Z,1001.44
2019-05-06T11:21:33.758Z,1001.41
2019-05-06T11:22:33.740Z,1001.39
2019-05-06T11:23:33.988Z,1001.43
2019-05-06T11:24:33.713Z,1001.45
2019-05-06T11:25:33.785Z,1001.40
2019-05-06T11:26:33.696Z,1001.47
2019-05-06T11:27:37.535Z,1001.50
2019-05-06T11:28:35.366Z,1001.48
2019-05-06T11:29:36.655Z,1001.48
2019-05-06T11:30:33.652Z,1001.50
2019-05-06T11:31:33.769Z,1001.50
2019-05-06T11:32:33.657Z,1001.50
2019-05-06T11:33:33.613Z,1001.43
2019-05-06T11:34:33.602Z,1001.41
2019-05-06T11:35:33.590Z,1001.44
2019-05-06T11:36:33.615Z,1001.46
2019-05-06T11:37:45.927Z,1001.45
2019-05-06T11:38:34.562Z,1001.44
2019-05-06T11:39:33.549Z,1001.40
2019-05-06T11:40:33.537Z,1001.40
2019-05-06T11:41:33.540Z,1001.39
2019-05-06T11:42:35.931Z,1001.32
2019-05-06T11:43:33.559Z,1001.34
2019-05-06T11:44:33.513Z,1001.33
2019-05-06T11:45:33.487Z,1001.38
2019-05-06T11:46:33.477Z,1001.36
2019-05-06T11:47:33.470Z,1001.38
2019-05-06T11:48:33.449Z,1001.31
2019-05-06T11:49:33.478Z,1001.35
2019-05-06T11:50:33.633Z,1001.36
2019-05-06T11:51:33.415Z,1001.35
2019-05-06T11:52:34.670Z,1001.37
2019-05-06T11:53:33.401Z,1001.38
2019-05-06T11:54:33.835Z,1001.39
2019-05-06T11:55:38.644Z,1001.37
2019-05-06T11:56:47.710Z,1001.33
2019-05-06T11:57:34.365Z,1001.29
2019-05-06T11:58:33.342Z,1001.32
2019-05-06T11:59:33.326Z,1001.35
2019-05-06T12:00:35.873Z,1001.36
2019-05-06T12:01:33.363Z,1001.27
2019-05-06T12:02:33.319Z,1001.26
2019-05-06T12:03:33.279Z,1001.31
2019-05-06T12:04:33.306Z,1001.37
2019-05-06T12:05:33.294Z,1001.33